Weather History for Andrews, TX

Change the Weather History Date:

Tuesday, January 7, 2014

  Actual Average (KMAF) Record (KMAF)
Temperature  
Mean Temperature 34 °F 43 °F  
Max Temperature 51 °F 57 °F 77 °F (2006)
Min Temperature 18 °F 30 °F 11 °F (1970)
Degree Days  
Heating Degree Days 30 22  
Month to date heating degree days 154  
Since 1 July heating degree days 1270  
Moisture  
Dew Point 14 °F    
Average Humidity 50    
Maximum Humidity 75    
Minimum Humidity 25    
Precipitation  
Precipitation 0.00 in 0.02 in 1.45 in (1939)
Month to date precipitation 0.10  
Year to date precipitation 0.10  
Snow  
Snow 0.00 in - - ()
Month to date snowfall  
Since 1 July snowfall  
Snow Depth -    
Sea Level Pressure  
Sea Level Pressure 30.22 in    
Wind  
Wind Speed 10 mph (SSW)    
Max Wind Speed 16 mph    
Max Gust Speed 20 mph    
Visibility 10 miles    
Events      
T = Trace of Precipitation, MM = Missing Value Source: NWS Daily Summary

Daily Weather History Graph

Daily Weather History Graph

Search for Another Location

Airport:

Trip Planner

Search our weather history database for the weather conditions in past years. The results will help you decide how hot, cold, wet, or windy it might be!

Date:

Astronomy

Jan. 07, 2014 Rise Set
Actual Time 7:52 AM CST 6:00 PM CST
Civil Twilight 7:25 AM CST 6:27 PM CST
Nautical Twilight 6:55 AM CST 6:58 PM CST
Astronomical Twilight 6:25 AM CST 7:27 PM CST
Moon 12:07 PM CST (1/7) 12:11 AM CST (1/7)
Length of Visible Light 11h 02m
Length of Day
10h 08m
Waxing Crescent, 46% of the Moon is Illuminated
Jan 7
Waxing Crescent
Jan 7
First Quarter
Jan 15
Full
Jan 23
Last Quarter
Jan 30
New

Hourly Weather History & Observations

Time (CST) Temp. Windchill Dew Point Humidity Pressure Visibility Wind Dir Wind Speed Gust Speed Precip Events Conditions
12:15 AM 20.1 °F - 7.5 °F 58% 30.42 in 10.0 mi North - - N/A   Clear
12:35 AM 19.4 °F - 7.3 °F 60% 30.41 in 10.0 mi North - - N/A   Clear
12:55 AM 19.0 °F - 8.2 °F 63% 30.41 in 10.0 mi North - - N/A   Clear
1:10 AM 19.6 °F - 7.3 °F 59% 30.39 in 10.0 mi North - - N/A   Clear
1:35 AM 19.4 °F - 7.3 °F 60% 30.38 in 10.0 mi North - - N/A   Clear
1:55 AM 19.4 °F - 7.7 °F 60% 30.38 in 10.0 mi North - - N/A   Clear
2:15 AM 19.2 °F - 7.5 °F 60% 30.38 in 10.0 mi North - - N/A   Clear
2:35 AM 19.6 °F - 7.2 °F 59% 30.38 in 10.0 mi North - - N/A   Clear
2:55 AM 18.9 °F - 7.2 °F 60% 30.37 in 10.0 mi North - - N/A   Clear
3:15 AM 19.2 °F - 6.8 °F 59% 30.37 in 10.0 mi North - - N/A   Clear
3:35 AM 19.6 °F - 6.8 °F 58% 30.36 in 10.0 mi North - - N/A   Clear
3:55 AM 19.4 °F - 6.8 °F 58% 30.36 in 10.0 mi North - - N/A   Clear
4:15 AM 19.6 °F - 7.2 °F 59% 30.35 in 10.0 mi North - - N/A   Clear
4:35 AM 19.4 °F - 7.5 °F 60% 30.35 in 10.0 mi North - - N/A   Clear
4:55 AM 19.4 °F - 7.7 °F 60% 30.34 in 10.0 mi North - - N/A   Clear
5:15 AM 19.4 °F - 8.6 °F 63% 30.34 in 10.0 mi North - - N/A   Clear
5:35 AM 19.2 °F - 9.0 °F 64% 30.33 in 10.0 mi North - - N/A   Clear
5:55 AM 19.0 °F - 9.1 °F 65% 30.32 in 10.0 mi North - - N/A   Clear
6:15 AM 19.4 °F - 9.9 °F 66% 30.32 in 10.0 mi North - - N/A   Clear
6:35 AM 19.0 °F - 10.2 °F 69% 30.31 in 10.0 mi North - - N/A   Clear
6:55 AM 18.9 °F - 10.6 °F 70% 30.31 in 10.0 mi North - - N/A   Clear
7:15 AM 19.2 °F - 11.3 °F 71% 30.31 in 10.0 mi North - - N/A   Clear
7:35 AM 18.5 °F - 11.3 °F 73% 30.31 in 10.0 mi North - - N/A   Clear
7:55 AM 18.3 °F - 11.5 °F 75% 30.31 in 10.0 mi North - - N/A   Clear
8:15 AM 19.0 °F - 12.0 °F 74% 30.31 in 10.0 mi North - - N/A   Clear
8:30 AM 20.3 °F 9.8 °F 12.6 °F 72% 30.31 in 10.0 mi SW 9.2 mph - N/A   Clear
8:55 AM 22.1 °F 12.8 °F 13.3 °F 69% 30.31 in 10.0 mi SSW 8.1 mph - N/A   Clear
9:15 AM 24.6 °F 14.4 °F 14.4 °F 65% 30.31 in 10.0 mi SW 10.4 mph - N/A   Clear
9:35 AM 26.4 °F 17.3 °F 14.2 °F 60% 30.31 in 10.0 mi SSW 9.2 mph - N/A   Clear
9:55 AM 28.8 °F 20.9 °F 14.2 °F 55% 30.31 in 10.0 mi SW 8.1 mph - N/A   Clear
10:15 AM 30.9 °F 23.5 °F 15.1 °F 52% 30.30 in 10.0 mi SSW 8.1 mph - N/A   Clear
10:35 AM 33.1 °F 25.5 °F 15.4 °F 48% 30.30 in 10.0 mi SSW 9.2 mph - N/A   Clear
10:55 AM 36.0 °F 29.6 °F 15.4 °F 43% 30.28 in 10.0 mi South 8.1 mph - N/A   Clear
11:15 AM 37.9 °F 30.5 °F 15.4 °F 40% 30.28 in 10.0 mi SSW 11.5 mph - N/A   Clear
11:35 AM 40.3 °F 34.4 °F 15.6 °F 37% 30.26 in 10.0 mi South 9.2 mph - N/A   Clear
11:55 AM 41.2 °F 35.5 °F 15.4 °F 35% 30.25 in 10.0 mi SSW 9.2 mph - N/A   Clear
12:15 PM 43.3 °F 37.7 °F 15.6 °F 33% 30.23 in 10.0 mi SW 10.4 mph - N/A   Clear
12:35 PM 45.9 °F 40.4 °F 15.8 °F 30% 30.21 in 10.0 mi SW 11.5 mph - N/A   Clear
12:55 PM 47.8 °F - 16.2 °F 28% 30.20 in 10.0 mi SW 11.5 mph 16.1 mph N/A   Clear
1:15 PM 48.4 °F - 16.5 °F 28% 30.18 in 10.0 mi SW 10.4 mph - N/A   Clear
1:35 PM 48.4 °F - 16.3 °F 28% 30.17 in 10.0 mi SSW 11.5 mph - N/A   Clear
1:55 PM 49.6 °F - 16.7 °F 27% 30.15 in 10.0 mi SW 9.2 mph - N/A   Clear
2:15 PM 50.0 °F - 17.1 °F 27% 30.14 in 10.0 mi SSW 10.4 mph 16.1 mph N/A   Clear
2:35 PM 51.1 °F - 17.4 °F 26% 30.13 in 10.0 mi WSW 11.5 mph - N/A   Clear
2:55 PM 51.1 °F - 16.5 °F 25% 30.12 in 10.0 mi SW 12.7 mph 18.4 mph N/A   Clear
3:15 PM 51.8 °F - 17.2 °F 26% 30.12 in 10.0 mi SW 16.1 mph 19.6 mph N/A   Clear
3:35 PM 51.4 °F - 17.1 °F 26% 30.12 in 10.0 mi SW 12.7 mph - N/A   Clear
3:55 PM 50.5 °F - 17.4 °F 27% 30.10 in 10.0 mi SSW 12.7 mph 17.3 mph N/A   Clear
4:15 PM 48.9 °F - 17.4 °F 29% 30.12 in 10.0 mi SSW 10.4 mph - N/A   Clear
4:35 PM 48.9 °F - 17.6 °F 29% 30.11 in 10.0 mi SSW 11.5 mph - N/A   Clear
4:55 PM 49.3 °F - 17.4 °F 28% 30.10 in 10.0 mi SW 9.2 mph - N/A   Clear
5:15 PM 47.8 °F - 18.0 °F 31% 30.10 in 10.0 mi SSW 13.8 mph - N/A   Clear
5:35 PM 46.4 °F 41.9 °F 18.5 °F 33% 30.09 in 10.0 mi SSW 9.2 mph - N/A   Clear
5:55 PM 44.6 °F 40.7 °F 18.9 °F 36% 30.09 in 10.0 mi South 6.9 mph - N/A   Clear
6:15 PM 42.1 °F 38.4 °F 19.2 °F 40% 30.09 in 10.0 mi South 5.8 mph - N/A   Clear
6:35 PM 40.1 °F 36.1 °F 19.4 °F 43% 30.09 in 10.0 mi South 5.8 mph - N/A   Clear
6:55 PM 39.4 °F 34.5 °F 18.9 °F 44% 30.09 in 10.0 mi South 6.9 mph - N/A   Clear
7:15 PM 38.7 °F 32.4 °F 18.5 °F 44% 30.08 in 10.0 mi South 9.2 mph - N/A   Clear
7:35 PM 37.0 °F 31.6 °F 18.5 °F 47% 30.09 in 10.0 mi South 6.9 mph - N/A   Clear
7:55 PM 35.6 °F 29.9 °F 18.5 °F 50% 30.10 in 10.0 mi South 6.9 mph - N/A   Clear
8:15 PM 34.9 °F 28.3 °F 18.3 °F 51% 30.08 in 10.0 mi South 8.1 mph - N/A   Clear
8:35 PM 35.1 °F 27.9 °F 18.5 °F 51% 30.09 in 10.0 mi South 9.2 mph - N/A   Clear
8:50 PM 35.4 °F 27.8 °F 18.3 °F 50% 30.09 in 10.0 mi South 10.4 mph - N/A   Clear
9:15 PM 34.5 °F 26.7 °F 18.5 °F 52% 30.09 in 10.0 mi South 10.4 mph - N/A   Clear
9:35 PM 33.8 °F 25.8 °F 18.5 °F 54% 30.08 in 10.0 mi South 10.4 mph - N/A   Clear
9:55 PM 33.1 °F 24.4 °F 18.9 °F 56% 30.07 in 10.0 mi South 11.5 mph 16.1 mph N/A   Clear
10:15 PM 32.9 °F 24.7 °F 19.6 °F 58% 30.07 in 10.0 mi South 10.4 mph - N/A   Clear
10:35 PM 33.1 °F 24.9 °F 20.7 °F 60% 30.07 in 10.0 mi South 10.4 mph 18.4 mph N/A   Clear
10:55 PM 33.3 °F 24.1 °F 21.2 °F 61% 30.07 in 10.0 mi South 12.7 mph - N/A   Clear
11:15 PM 33.1 °F 23.9 °F 21.9 °F 64% 30.05 in 10.0 mi South 12.7 mph 19.6 mph N/A   Clear
11:35 PM 33.1 °F 23.4 °F 22.6 °F 66% 30.04 in 10.0 mi South 13.8 mph 19.6 mph N/A   Clear
11:55 PM 32.5 °F 23.2 °F 23.0 °F 68% 30.05 in 10.0 mi SSW 12.7 mph - N/A   Clear